Time;durP1;ratioP1;P1;durP2;ratioP2;P2;SDS_P1;SDS_P2;PMS_P1;PMS_P2;Temp;Humidity;BMP_temperature;BMP_pressure;BME280_temperature;BME280_humidity;BME280_pressure;Samples;Min_cycle;Max_cycle;Signal;HPM_P1;HPM_P2
2023/02/15 00:00:26;;;;;;;3.40;1.30;;;;;;;-1.51;100.00;100111.94;105847;1251;60630;-56
2023/02/15 00:02:55;;;;;;;5.10;1.30;;;;;;;-1.54;100.00;100115.17;106013;1251;61381;-56
2023/02/15 00:05:24;;;;;;;3.60;1.10;;;;;;;-1.58;100.00;100118.37;106088;1254;73693;-56
2023/02/15 00:07:52;;;;;;;4.80;1.50;;;;;;;-1.63;100.00;100124.02;105900;1251;68332;-57
2023/02/15 00:10:21;;;;;;;4.50;1.20;;;;;;;-1.65;100.00;100121.42;106064;1251;73968;-57
2023/02/15 00:12:50;;;;;;;3.30;1.40;;;;;;;-1.67;100.00;100119.52;105971;1256;60083;-56
2023/02/15 00:15:19;;;;;;;2.50;1.20;;;;;;;-1.70;100.00;100124.31;106103;1256;60040;-59
2023/02/15 00:17:48;;;;;;;3.40;1.50;;;;;;;-1.71;100.00;100126.95;106011;1253;73755;-56
2023/02/15 00:20:18;;;;;;;3.90;1.30;;;;;;;-1.73;100.00;100127.80;105853;1256;68884;-56
2023/02/15 00:22:46;;;;;;;3.00;1.40;;;;;;;-1.75;100.00;100135.21;105894;1251;74439;-55
2023/02/15 00:25:15;;;;;;;3.50;1.50;;;;;;;-1.72;100.00;100138.44;106211;1251;61059;-58
2023/02/15 00:27:44;;;;;;;4.00;1.60;;;;;;;-1.70;100.00;100130.80;106008;1251;60118;-56
2023/02/15 00:30:13;;;;;;;5.20;1.80;;;;;;;-1.67;100.00;100136.61;105988;1251;73015;-56
2023/02/15 00:32:42;;;;;;;3.40;1.50;;;;;;;-1.64;100.00;100135.84;105817;1251;68600;-57
2023/02/15 00:35:15;;;;;;;3.00;1.40;;;;;;;-1.58;100.00;100140.89;106052;1251;73944;-59
2023/02/15 00:37:43;;;;;;;5.20;1.80;;;;;;;-1.54;100.00;100143.85;106030;1256;60221;-56
2023/02/15 00:40:12;;;;;;;4.50;1.50;;;;;;;-1.51;100.00;100141.38;106069;1251;61728;-56
2023/02/15 00:42:42;;;;;;;4.50;1.30;;;;;;;-1.47;100.00;100143.14;105855;1251;73356;-54
2023/02/15 00:45:11;;;;;;;3.00;1.30;;;;;;;-1.42;100.00;100139.07;106090;1251;67557;-57
2023/02/15 00:47:40;;;;;;;3.50;1.40;;;;;;;-1.39;100.00;100142.27;105961;1256;73761;-56
2023/02/15 00:50:09;;;;;;;2.70;1.00;;;;;;;-1.36;100.00;100145.11;105916;1251;59999;-55
2023/02/15 00:52:38;;;;;;;3.50;1.20;;;;;;;-1.33;100.00;100148.64;105902;1255;60870;-55
2023/02/15 00:55:07;;;;;;;3.00;1.30;;;;;;;-1.31;100.00;100146.28;105850;1256;73551;-55
2023/02/15 00:57:36;;;;;;;3.50;1.30;;;;;;;-1.29;100.00;100146.16;105888;1252;68524;-56
2023/02/15 01:00:08;;;;;;;3.10;1.00;;;;;;;-1.27;100.00;100147.52;105877;1251;73177;-55
2023/02/15 01:02:37;;;;;;;3.40;1.20;;;;;;;-1.26;100.00;100148.80;106028;1256;59831;-55
2023/02/15 01:05:06;;;;;;;4.10;1.30;;;;;;;-1.24;100.00;100151.05;105964;1251;60815;-56
2023/02/15 01:07:35;;;;;;;3.60;1.80;;;;;;;-1.22;100.00;100153.64;106047;1251;73877;-56
2023/02/15 01:10:06;;;;;;;2.60;1.00;;;;;;;-1.20;100.00;100150.27;105713;1255;68518;-55
2023/02/15 01:12:37;;;;;;;3.30;1.30;;;;;;;-1.18;100.00;100150.52;105848;1251;74110;-55
2023/02/15 01:15:08;;;;;;;3.10;1.20;;;;;;;-1.17;100.00;100152.48;105709;1251;62689;-56
2023/02/15 01:17:38;;;;;;;3.40;1.60;;;;;;;-1.18;100.00;100150.79;105850;1255;59979;-57
2023/02/15 01:20:07;;;;;;;3.80;1.30;;;;;;;-1.17;100.00;100150.58;105672;1251;74499;-56
2023/02/15 01:22:35;;;;;;;3.70;1.80;;;;;;;-1.16;100.00;100153.25;106070;1251;68918;-57
2023/02/15 01:25:05;;;;;;;3.70;1.40;;;;;;;-1.15;100.00;100153.64;106182;1251;74353;-55
2023/02/15 01:27:33;;;;;;;4.20;1.60;;;;;;;-1.14;100.00;100152.09;105731;1256;62708;-55
2023/02/15 01:30:11;;;;;;;3.30;1.70;;;;;;;-1.14;100.00;100157.67;105918;1256;60704;-55
2023/02/15 01:32:43;;;;;;;3.10;1.30;;;;;;;-1.12;100.00;100155.29;105856;1251;73863;-59
2023/02/15 01:35:16;;;;;;;5.70;1.90;;;;;;;-1.10;100.00;100157.05;105959;1256;68422;-56
2023/02/15 01:37:45;;;;;;;3.30;1.30;;;;;;;-1.09;100.00;100158.02;105884;1254;73391;-55
2023/02/15 01:40:16;;;;;;;3.50;1.40;;;;;;;-1.08;100.00;100161.16;106032;1251;60345;-58
2023/02/15 01:42:49;;;;;;;2.60;1.20;;;;;;;-1.07;100.00;100163.62;106037;1256;60098;-58
2023/02/15 01:45:28;;;;;;;3.20;1.70;;;;;;;-1.05;100.00;100165.75;105765;1253;73570;-55
2023/02/15 01:48:06;;;;;;;4.70;1.90;;;;;;;-1.05;100.00;100170.31;105853;1251;68176;-58
2023/02/15 01:50:41;;;;;;;5.50;1.80;;;;;;;-1.03;100.00;100170.33;105901;1251;74142;-55
2023/02/15 01:53:19;;;;;;;4.20;1.60;;;;;;;-1.01;100.00;100167.98;105973;1253;62951;-55
2023/02/15 01:55:55;;;;;;;4.10;1.70;;;;;;;-1.00;100.00;100163.30;106405;1252;60526;-55
2023/02/15 01:58:25;;;;;;;4.80;2.10;;;;;;;-0.98;100.00;100168.83;105900;1251;73088;-57
2023/02/15 02:00:54;;;;;;;5.20;1.70;;;;;;;-0.97;100.00;100169.94;105991;1255;67679;-57
2023/02/15 02:03:41;;;;;;;3.50;1.60;;;;;;;-0.97;100.00;100169.58;106125;1251;74172;-58
2023/02/15 02:06:11;;;;;;;4.60;2.10;;;;;;;-0.96;100.00;100171.09;105725;1257;61401;-57
2023/02/15 02:08:41;;;;;;;4.30;2.00;;;;;;;-0.97;100.00;100170.63;106234;1253;62045;-57
2023/02/15 02:11:13;;;;;;;5.60;2.40;;;;;;;-0.98;100.00;100167.63;105908;1251;73708;-57
2023/02/15 02:13:43;;;;;;;5.30;2.00;;;;;;;-0.98;100.00;100170.87;106030;1252;68379;-56
2023/02/15 02:16:30;;;;;;;4.40;2.00;;;;;;;-0.99;100.00;100171.12;105944;1251;74189;-57
2023/02/15 02:19:35;;;;;;;4.80;2.40;;;;;;;-1.00;100.00;100171.12;105917;1251;61252;-57
2023/02/15 02:22:29;;;;;;;6.10;2.10;;;;;;;-1.00;100.00;100175.21;105857;1253;60756;-57
2023/02/15 02:25:00;;;;;;;3.70;2.20;;;;;;;-1.00;100.00;100174.42;105678;1256;73552;-55
2023/02/15 02:27:39;;;;;;;6.10;2.70;;;;;;;-1.01;100.00;100174.98;105853;1251;67820;-56
2023/02/15 02:30:19;;;;;;;5.30;2.30;;;;;;;-1.02;100.00;100173.49;105590;1256;73303;-59
2023/02/15 02:33:17;;;;;;;3.80;1.80;;;;;;;-1.03;100.00;100175.43;105918;1255;60537;-56
2023/02/15 02:36:13;;;;;;;6.30;2.00;;;;;;;-1.03;100.00;100173.25;105869;1255;60939;-59
2023/02/15 02:38:53;;;;;;;4.90;2.50;;;;;;;-1.03;100.00;100170.54;105876;1254;75129;-59
2023/02/15 02:41:48;;;;;;;4.90;2.50;;;;;;;-1.04;100.00;100169.02;105671;1256;67323;-58
2023/02/15 02:44:24;;;;;;;5.30;2.50;;;;;;;-1.05;100.00;100166.25;106262;1251;73145;-55
2023/02/15 02:47:00;;;;;;;4.00;2.30;;;;;;;-1.05;100.00;100166.59;105725;1251;62519;-58
2023/02/15 02:49:32;;;;;;;6.30;3.40;;;;;;;-1.06;100.00;100162.02;105913;1253;61380;-56
2023/02/15 02:52:02;;;;;;;5.00;2.40;;;;;;;-1.08;100.00;100163.04;106093;1251;75395;-58
2023/02/15 02:54:31;;;;;;;4.80;2.80;;;;;;;-1.10;100.00;100168.98;105527;1251;68639;-56
2023/02/15 02:57:02;;;;;;;4.40;2.30;;;;;;;-1.12;100.00;100167.80;105964;1253;74301;-56
2023/02/15 02:59:33;;;;;;;5.00;2.50;;;;;;;-1.15;100.00;100163.52;105800;1253;62041;-56
2023/02/15 03:02:16;;;;;;;5.70;3.00;;;;;;;-1.16;100.00;100168.39;105885;1251;61838;-58
2023/02/15 03:04:47;;;;;;;5.10;2.50;;;;;;;-1.16;100.00;100167.25;105738;1251;75007;-57
2023/02/15 03:07:21;;;;;;;4.30;2.20;;;;;;;-1.17;100.00;100167.11;105272;1258;67581;-55
2023/02/15 03:09:51;;;;;;;4.60;2.30;;;;;;;-1.16;100.00;100170.65;105860;1255;73066;-56
2023/02/15 03:12:24;;;;;;;5.10;2.50;;;;;;;-1.16;100.00;100169.44;105915;1256;62383;-55
2023/02/15 03:15:00;;;;;;;3.80;2.00;;;;;;;-1.16;100.00;100168.06;105876;1254;60626;-55
2023/02/15 03:17:31;;;;;;;4.90;2.70;;;;;;;-1.16;100.00;100173.71;105789;1251;75199;-59
2023/02/15 03:20:03;;;;;;;4.00;2.30;;;;;;;-1.15;100.00;100174.50;105789;1251;65808;-55
2023/02/15 03:22:38;;;;;;;5.80;2.80;;;;;;;-1.16;100.00;100177.42;106088;1253;74592;-57
2023/02/15 03:25:16;;;;;;;4.30;2.30;;;;;;;-1.16;100.00;100176.92;105875;1251;62840;-56
2023/02/15 03:27:49;;;;;;;4.80;2.10;;;;;;;-1.15;100.00;100179.59;105926;1251;61835;-58
2023/02/15 03:30:18;;;;;;;4.00;2.20;;;;;;;-1.14;100.00;100183.40;105600;1251;74519;-58
2023/02/15 03:32:48;;;;;;;5.40;2.40;;;;;;;-1.13;100.00;100184.02;105916;1251;67782;-56
2023/02/15 03:35:17;;;;;;;5.00;2.30;;;;;;;-1.12;100.00;100190.09;105961;1253;74120;-57
2023/02/15 03:37:57;;;;;;;4.60;2.20;;;;;;;-1.11;100.00;100187.80;105867;1255;61742;-56
2023/02/15 03:43:19;;;;;;;4.50;2.70;;;;;;;-1.08;100.00;100188.30;105917;1253;75527;-56
2023/02/15 03:45:56;;;;;;;4.90;2.80;;;;;;;-1.07;100.00;100190.58;106030;1255;67612;-57
2023/02/15 03:48:56;;;;;;;5.40;3.40;;;;;;;-1.05;100.00;100194.90;105718;1251;74424;-57
2023/02/15 03:51:34;;;;;;;5.60;2.80;;;;;;;-1.03;100.00;100194.73;105765;1251;60570;-61
2023/02/15 04:03:19;;;;;;;5.40;2.90;;;;;;;-1.00;100.00;100209.70;105725;1251;74130;-55
2023/02/15 04:05:54;;;;;;;6.80;3.20;;;;;;;-1.00;100.00;100211.42;105739;1251;61553;-57
2023/02/15 04:10:51;;;;;;;5.40;3.30;;;;;;;-1.00;100.00;100212.28;105816;1252;61825;-59
2023/02/15 04:11:11;;;;;;;7.00;3.30;;;;;;;-0.99;100.00;100216.59;106001;1251;75251;-58
2023/02/15 04:13:39;;;;;;;5.90;2.80;;;;;;;-0.97;100.00;100222.95;106071;1254;67617;-58
2023/02/15 04:16:08;;;;;;;5.70;2.80;;;;;;;-0.96;100.00;100224.77;105936;1253;73319;-55
2023/02/15 04:27:05;;;;;;;6.40;3.30;;;;;;;-0.98;100.00;100228.80;105881;1251;67046;-56
2023/02/15 04:29:34;;;;;;;8.80;3.90;;;;;;;-0.97;100.00;100228.63;105986;1253;74158;-56
2023/02/15 04:32:02;;;;;;;8.60;4.10;;;;;;;-0.97;100.00;100233.86;105901;1251;62569;-57
2023/02/15 04:34:31;;;;;;;7.40;3.20;;;;;;;-0.97;100.00;100239.01;105947;1251;61121;-54
2023/02/15 04:37:00;;;;;;;7.40;3.40;;;;;;;-0.96;100.00;100238.77;105954;1254;75168;-54
2023/02/15 04:39:29;;;;;;;6.40;2.60;;;;;;;-0.95;100.00;100245.54;106087;1251;67594;-54
2023/02/15 04:41:57;;;;;;;6.70;3.00;;;;;;;-0.94;100.00;100245.27;105719;1253;72573;-54
2023/02/15 04:44:26;;;;;;;5.60;3.10;;;;;;;-0.93;100.00;100253.91;105912;1252;62764;-57
2023/02/15 04:46:55;;;;;;;4.90;2.50;;;;;;;-0.92;100.00;100254.21;105840;1251;61955;-57
2023/02/15 04:49:23;;;;;;;7.40;3.10;;;;;;;-0.93;100.00;100259.24;105763;1253;74307;-59
2023/02/15 04:51:52;;;;;;;4.90;2.10;;;;;;;-0.94;100.00;100262.16;105753;1253;68445;-56
2023/02/15 04:54:21;;;;;;;6.00;3.40;;;;;;;-0.94;100.00;100265.40;106051;1251;71898;-58
2023/02/15 04:56:50;;;;;;;4.90;2.50;;;;;;;-0.95;100.00;100270.30;105906;1251;61214;-56
2023/02/15 04:59:19;;;;;;;5.40;2.80;;;;;;;-0.96;100.00;100271.16;106240;1253;61890;-56
2023/02/15 05:01:47;;;;;;;8.80;3.50;;;;;;;-0.96;100.00;100270.80;105809;1255;73762;-56
2023/02/15 05:04:16;;;;;;;6.70;4.10;;;;;;;-0.96;100.00;100267.75;106224;1252;68568;-58
2023/02/15 05:06:45;;;;;;;7.60;4.10;;;;;;;-0.94;100.00;100269.73;105820;1254;74317;-55
2023/02/15 05:09:18;;;;;;;6.40;2.80;;;;;;;-0.93;100.00;100273.84;105691;1251;61450;-56
2023/02/15 05:11:46;;;;;;;5.60;3.30;;;;;;;-0.92;100.00;100275.85;105727;1252;60290;-55
2023/02/15 05:14:15;;;;;;;5.70;2.60;;;;;;;-0.91;100.00;100275.09;106114;1253;75416;-56
2023/02/15 05:16:43;;;;;;;6.70;3.60;;;;;;;-0.88;100.00;100272.80;105847;1255;67802;-56
2023/02/15 05:19:12;;;;;;;6.10;3.10;;;;;;;-0.84;100.00;100270.11;105956;1253;73130;-57
2023/02/15 05:21:42;;;;;;;4.90;2.60;;;;;;;-0.80;100.00;100276.62;105873;1255;60426;-56
2023/02/15 05:29:46;;;;;;;5.90;3.30;;;;;;;-0.70;100.00;100274.41;106091;1252;68539;-57
2023/02/15 05:32:18;;;;;;;4.50;2.30;;;;;;;-0.67;100.00;100275.23;105776;1256;74201;-56
2023/02/15 05:34:46;;;;;;;5.60;2.90;;;;;;;-0.65;100.00;100275.66;105870;1253;60576;-57
2023/02/15 05:37:15;;;;;;;4.20;2.00;;;;;;;-0.64;100.00;100278.28;105904;1254;60312;-55
2023/02/15 05:39:43;;;;;;;5.00;2.70;;;;;;;-0.63;100.00;100274.63;106046;1252;75371;-58
2023/02/15 05:42:12;;;;;;;5.80;2.80;;;;;;;-0.59;100.00;100278.45;105898;1254;68590;-56
2023/02/15 05:44:41;;;;;;;5.50;2.80;;;;;;;-0.52;100.00;100277.55;105980;1251;72195;-56
2023/02/15 05:47:10;;;;;;;7.50;4.20;;;;;;;-0.43;100.00;100277.98;106103;1251;60850;-56
2023/02/15 05:49:38;;;;;;;8.40;4.70;;;;;;;-0.38;100.00;100282.84;105904;1252;61819;-58
2023/02/15 05:52:08;;;;;;;5.50;3.20;;;;;;;-0.34;100.00;100283.23;105584;1254;75891;-56
2023/02/15 05:54:39;;;;;;;5.50;3.60;;;;;;;-0.32;100.00;100288.39;105759;1251;68652;-55
2023/02/15 05:57:08;;;;;;;5.90;3.70;;;;;;;-0.33;100.00;100286.60;106128;1253;73200;-59
2023/02/15 05:59:36;;;;;;;4.50;2.30;;;;;;;-0.33;100.00;100293.10;105845;1251;62675;-58
2023/02/15 06:02:06;;;;;;;5.00;2.90;;;;;;;-0.32;100.00;100290.29;105887;1253;60522;-57
2023/02/15 06:04:35;;;;;;;5.60;2.80;;;;;;;-0.27;100.00;100296.20;105859;1251;74771;-57
2023/02/15 06:07:04;;;;;;;4.80;2.90;;;;;;;-0.20;100.00;100296.60;106010;1256;68781;-59
2023/02/15 06:09:37;;;;;;;4.00;2.40;;;;;;;-0.13;100.00;100298.77;105821;1250;73192;-57
2023/02/15 06:12:05;;;;;;;6.70;3.00;;;;;;;-0.07;100.00;100300.20;105673;1256;62878;-60
2023/02/15 06:14:34;;;;;;;4.50;2.80;;;;;;;-0.02;100.00;100301.39;105935;1251;60857;-58
2023/02/15 06:17:03;;;;;;;5.30;2.70;;;;;;;-0.00;100.00;100299.55;105806;1255;73754;-57
2023/02/15 06:19:31;;;;;;;4.10;2.20;;;;;;;0.00;100.00;100302.08;105794;1251;68019;-59
2023/02/15 06:22:01;;;;;;;4.30;2.70;;;;;;;-0.01;100.00;100308.31;105585;1256;74318;-55
2023/02/15 06:24:30;;;;;;;5.50;2.50;;;;;;;-0.07;100.00;100308.40;106014;1253;60970;-56
2023/02/15 06:27:01;;;;;;;;;;;;;;;-0.11;100.00;100313.16;106196;1253;60774;-57
2023/02/15 06:29:32;;;;;;;5.20;2.30;;;;;;;-0.11;100.00;100319.00;105825;1255;75294;-55
2023/02/15 06:32:00;;;;;;;4.80;2.30;;;;;;;-0.05;100.00;100318.70;105811;1255;68630;-55
2023/02/15 06:34:29;;;;;;;4.30;2.20;;;;;;;0.09;100.00;100320.54;106027;1254;74150;-55
2023/02/15 06:36:58;;;;;;;4.20;2.00;;;;;;;0.22;100.00;100323.66;106043;1253;60429;-56
2023/02/15 06:39:28;;;;;;;4.50;2.00;;;;;;;0.31;100.00;100325.63;105911;1256;60963;-58
2023/02/15 06:41:57;;;;;;;4.10;2.30;;;;;;;0.36;100.00;100327.63;105663;1254;73859;-55
2023/02/15 06:44:26;;;;;;;4.80;2.20;;;;;;;0.38;100.00;100335.85;105686;1253;68713;-54
2023/02/15 06:46:54;;;;;;;5.40;2.60;;;;;;;0.38;100.00;100332.92;105965;1253;74205;-58
2023/02/15 06:49:23;;;;;;;5.30;2.10;;;;;;;0.40;100.00;100334.45;106077;1254;60427;-58
2023/02/15 06:51:51;;;;;;;6.40;2.40;;;;;;;0.44;100.00;100336.54;105567;1256;61309;-56
2023/02/15 06:54:20;;;;;;;4.90;2.20;;;;;;;0.49;100.00;100338.92;105993;1256;75375;-56
2023/02/15 06:56:49;;;;;;;6.50;3.40;;;;;;;0.55;100.00;100342.27;106196;1253;67324;-59
2023/02/15 06:59:17;;;;;;;5.90;2.70;;;;;;;0.58;100.00;100340.27;106155;1254;72795;-57
2023/02/15 07:01:46;;;;;;;4.70;2.40;;;;;;;0.59;100.00;100343.96;105864;1256;60447;-56
2023/02/15 07:04:15;;;;;;;5.80;2.20;;;;;;;0.60;100.00;100350.41;106098;1253;61712;-56
2023/02/15 07:06:45;;;;;;;5.80;2.20;;;;;;;0.60;100.00;100349.23;106050;1254;75350;-55
2023/02/15 07:09:15;;;;;;;4.70;2.80;;;;;;;0.59;100.00;100350.86;106172;1251;68014;-57
2023/02/15 07:14:32;;;;;;;5.10;2.60;;;;;;;0.56;100.00;100356.66;106072;1253;60781;-58
2023/02/15 07:17:02;;;;;;;7.00;3.20;;;;;;;0.61;100.00;100360.23;105917;1256;60304;-59
2023/02/15 07:19:31;;;;;;;5.00;2.60;;;;;;;0.67;100.00;100363.38;106071;1254;74621;-57
2023/02/15 07:22:03;;;;;;;8.10;4.00;;;;;;;0.68;100.00;100366.73;105975;1255;67788;-56
2023/02/15 07:24:32;;;;;;;4.20;2.00;;;;;;;0.69;100.00;100367.52;105833;1253;74704;-55
2023/02/15 07:27:03;;;;;;;7.40;2.70;;;;;;;0.68;100.00;100364.83;105905;1251;61203;-56
2023/02/15 07:29:32;;;;;;;5.00;2.10;;;;;;;0.68;100.00;100367.91;105969;1256;59842;-57
2023/02/15 07:32:03;;;;;;;3.80;1.60;;;;;;;0.72;100.00;100363.50;106165;1256;74156;-58
2023/02/15 07:34:33;;;;;;;4.70;2.40;;;;;;;0.81;100.00;100364.33;105973;1256;67008;-56
2023/02/15 07:37:01;;;;;;;4.00;1.60;;;;;;;0.95;100.00;100368.38;105910;1253;74117;-56
2023/02/15 07:39:30;;;;;;;6.40;1.60;;;;;;;1.09;100.00;100370.45;105978;1253;61482;-57
2023/02/15 07:42:00;;;;;;;4.20;1.70;;;;;;;1.18;100.00;100372.25;106060;1251;61240;-58
2023/02/15 07:44:32;;;;;;;6.10;2.50;;;;;;;1.29;100.00;100374.88;105660;1256;75211;-59
2023/02/15 07:47:01;;;;;;;6.90;3.30;;;;;;;1.35;100.00;100374.73;106233;1255;68399;-60
2023/02/15 07:49:30;;;;;;;4.40;1.80;;;;;;;1.37;100.00;100378.00;105752;1256;74034;-56
2023/02/15 07:52:00;;;;;;;3.00;1.30;;;;;;;1.38;100.00;100375.71;106261;1255;60502;-59
2023/02/15 07:54:29;;;;;;;3.60;1.50;;;;;;;1.37;100.00;100375.77;105958;1256;60429;-55
2023/02/15 07:56:57;;;;;;;4.80;1.70;;;;;;;1.36;100.00;100377.58;105998;1253;75553;-56
2023/02/15 07:59:27;;;;;;;4.10;1.00;;;;;;;1.31;100.00;100377.58;106063;1256;69236;-56
2023/02/15 08:01:56;;;;;;;4.30;1.60;;;;;;;1.26;100.00;100377.17;105911;1254;74215;-58
2023/02/15 08:04:24;;;;;;;3.20;1.10;;;;;;;1.26;100.00;100381.42;106230;1255;60369;-56
2023/02/15 08:06:54;;;;;;;3.70;1.20;;;;;;;1.29;100.00;100379.66;106064;1251;61845;-57
2023/02/15 08:09:23;;;;;;;2.90;1.40;;;;;;;1.31;100.00;100377.29;106138;1254;75332;-57
2023/02/15 08:11:52;;;;;;;4.70;1.70;;;;;;;1.32;100.00;100376.82;106159;1255;67099;-59
2023/02/15 08:14:22;;;;;;;2.60;1.20;;;;;;;1.35;100.00;100380.04;105868;1255;72851;-56
2023/02/15 08:16:52;;;;;;;2.50;1.00;;;;;;;1.41;100.00;100379.89;105773;1251;61144;-57
2023/02/15 08:19:22;;;;;;;2.20;0.90;;;;;;;1.45;100.00;100380.92;106006;1254;60607;-58
2023/02/15 08:21:56;;;;;;;2.60;1.10;;;;;;;1.48;100.00;100388.98;106043;1254;75356;-57
2023/02/15 08:24:34;;;;;;;3.50;1.50;;;;;;;1.52;100.00;100385.58;105883;1256;68770;-58
2023/02/15 08:27:05;;;;;;;2.70;1.30;;;;;;;1.49;100.00;100386.30;105605;1254;73344;-60
2023/02/15 08:29:35;;;;;;;2.90;1.30;;;;;;;1.40;100.00;100389.02;105915;1255;60507;-56
2023/02/15 08:32:08;;;;;;;2.80;1.50;;;;;;;1.32;100.00;100395.55;105909;1255;60868;-57
2023/02/15 08:34:40;;;;;;;3.90;1.50;;;;;;;1.25;100.00;100392.85;109394;1250;74756;-56
2023/02/15 08:37:09;;;;;;;3.40;1.20;;;;;;;1.21;100.00;100391.38;109371;1251;67089;-56
2023/02/15 08:39:38;;;;;;;3.60;1.40;;;;;;;1.15;100.00;100392.00;109428;1251;73653;-56
2023/02/15 08:42:06;;;;;;;3.00;1.40;;;;;;;1.10;100.00;100395.85;109342;1251;60716;-56
2023/02/15 08:44:35;;;;;;;6.30;2.30;;;;;;;1.11;100.00;100395.05;109455;1251;60672;-57
2023/02/15 08:47:04;;;;;;;3.10;1.20;;;;;;;1.21;100.00;100394.61;109438;1251;73754;-57
2023/02/15 08:49:32;;;;;;;3.10;1.60;;;;;;;1.37;100.00;100398.36;109410;1251;67741;-59
2023/02/15 08:52:01;;;;;;;6.10;2.60;;;;;;;1.52;100.00;100396.51;109421;1251;74033;-56
2023/02/15 08:54:29;;;;;;;8.10;3.70;;;;;;;1.65;100.00;100400.57;109380;1251;60469;-56
2023/02/15 08:56:59;;;;;;;4.80;2.00;;;;;;;1.75;100.00;100402.59;109397;1251;61412;-56
2023/02/15 08:59:27;;;;;;;4.30;2.20;;;;;;;1.79;100.00;100403.94;109465;1252;74819;-56
2023/02/15 09:01:56;;;;;;;4.30;1.70;;;;;;;1.84;100.00;100398.05;109395;1251;67978;-56
2023/02/15 09:04:24;;;;;;;5.20;2.80;;;;;;;1.96;100.00;100395.90;109423;1251;73929;-56
2023/02/15 09:06:52;;;;;;;5.30;2.30;;;;;;;2.17;100.00;100390.73;109339;1251;58565;-56
2023/02/15 09:09:22;;;;;;;5.30;1.70;;;;;;;2.64;100.00;100385.02;109402;1251;61393;-56
2023/02/15 09:11:51;;;;;;;7.60;2.90;;;;;;;3.35;100.00;100380.27;109398;1254;73554;-56
2023/02/15 09:14:26;;;;;;;5.00;2.30;;;;;;;4.05;100.00;100375.52;109460;1252;67050;-56
2023/02/15 09:16:55;;;;;;;5.30;2.50;;;;;;;4.56;100.00;100374.04;109403;1250;71478;-59
2023/02/15 09:19:24;;;;;;;6.00;2.60;;;;;;;5.07;100.00;100367.32;109356;1251;59228;-56
2023/02/15 09:21:53;;;;;;;3.60;1.90;;;;;;;5.32;100.00;100369.60;109437;1253;61071;-57
2023/02/15 09:24:21;;;;;;;4.20;2.00;;;;;;;5.28;100.00;100366.84;109489;1251;74827;-56
2023/02/15 09:26:53;;;;;;;10.60;4.40;;;;;;;5.18;100.00;100368.81;109386;1254;68018;-57
2023/02/15 09:29:22;;;;;;;4.30;1.90;;;;;;;4.98;100.00;100375.34;109397;1251;72592;-56
2023/02/15 09:31:51;;;;;;;5.10;2.00;;;;;;;4.65;100.00;100373.41;109394;1251;60585;-56
2023/02/15 09:34:20;;;;;;;4.50;1.70;;;;;;;4.34;100.00;100369.69;109338;1251;60061;-56
2023/02/15 09:36:48;;;;;;;4.70;1.90;;;;;;;4.07;100.00;100363.54;109382;1251;75342;-56
2023/02/15 09:39:24;;;;;;;3.80;1.50;;;;;;;3.91;100.00;100362.47;109420;1251;67715;-56
2023/02/15 09:41:55;;;;;;;6.10;2.20;;;;;;;3.86;100.00;100358.44;109452;1251;73621;-55
2023/02/15 09:44:32;;;;;;;6.10;2.50;;;;;;;3.87;100.00;100357.16;109440;1252;60615;-56
2023/02/15 09:47:34;;;;;;;6.20;2.70;;;;;;;3.88;100.00;100358.05;109404;1251;59721;-55
2023/02/15 09:50:03;;;;;;;13.50;8.00;;;;;;;4.03;100.00;100358.28;109383;1253;74745;-56
2023/02/15 09:52:50;;;;;;;9.50;4.60;;;;;;;4.22;100.00;100352.79;109450;1251;66923;-56
2023/02/15 09:55:21;;;;;;;9.50;3.20;;;;;;;4.37;100.00;100350.68;109368;1251;73355;-55
2023/02/15 09:57:53;;;;;;;;;;;;;;;4.43;100.00;100349.27;109372;1253;58938;-55
2023/02/15 10:00:43;;;;;;;4.00;1.70;;;;;;;4.39;100.00;100349.35;109406;1251;60065;-57
2023/02/15 10:03:12;;;;;;;4.70;1.60;;;;;;;4.23;100.00;100352.52;109371;1255;75174;-55
2023/02/15 10:05:45;;;;;;;4.70;2.00;;;;;;;4.05;100.00;100363.45;109475;1251;67075;-55
2023/02/15 10:08:29;;;;;;;5.20;3.10;;;;;;;3.68;100.00;100375.13;109363;1252;73713;-57
2023/02/15 10:11:42;;;;;;;3.80;2.10;;;;;;;3.14;100.00;100389.54;109382;1251;60552;-55
2023/02/15 10:14:13;;;;;;;3.90;1.50;;;;;;;2.38;100.00;100388.88;109171;1251;60963;-58
2023/02/15 10:17:17;;;;;;;8.40;3.20;;;;;;;1.87;100.00;100394.68;109416;1251;76329;-56
2023/02/15 10:20:05;;;;;;;4.10;1.90;;;;;;;1.61;100.00;100390.45;109218;1251;67251;-55
2023/02/15 10:23:07;;;;;;;4.20;2.10;;;;;;;1.57;100.00;100388.20;109421;1251;72377;-55
2023/02/15 10:26:11;;;;;;;5.70;2.30;;;;;;;1.74;100.00;100386.02;109346;1251;60885;-55
2023/02/15 10:28:50;;;;;;;8.50;3.00;;;;;;;1.97;100.00;100382.30;109403;1251;60312;-56
2023/02/15 10:31:26;;;;;;;4.00;2.10;;;;;;;2.15;100.00;100375.97;109367;1253;73917;-58
2023/02/15 10:34:11;;;;;;;4.80;2.20;;;;;;;2.31;100.00;100377.77;109407;1253;68063;-55
2023/02/15 10:37:28;;;;;;;5.40;2.30;;;;;;;2.50;100.00;100369.48;109363;1253;73386;-55
2023/02/15 10:40:20;;;;;;;3.70;1.80;;;;;;;2.82;100.00;100370.59;109310;1256;62002;-56
2023/02/15 10:42:58;;;;;;;6.30;2.00;;;;;;;3.08;100.00;100375.74;109394;1251;60290;-56
2023/02/15 10:46:03;;;;;;;5.20;1.70;;;;;;;3.16;100.00;100375.36;109386;1252;75089;-55
2023/02/15 10:49:11;;;;;;;3.80;1.80;;;;;;;3.13;100.00;100377.03;109384;1251;68084;-56
2023/02/15 10:51:47;;;;;;;4.30;2.10;;;;;;;2.92;100.00;100380.58;108983;1257;73900;-56
2023/02/15 10:54:28;;;;;;;4.00;2.00;;;;;;;2.68;100.00;100381.34;109379;1251;59964;-55
2023/02/15 10:56:59;;;;;;;3.80;1.70;;;;;;;2.50;100.00;100387.17;109322;1251;60378;-58
2023/02/15 10:59:37;;;;;;;5.00;2.20;;;;;;;2.49;100.00;100387.93;109317;1251;74934;-56
2023/02/15 11:02:28;;;;;;;3.30;1.60;;;;;;;2.61;100.00;100383.01;109389;1251;68042;-56
2023/02/15 11:05:18;;;;;;;3.50;1.80;;;;;;;2.81;100.00;100379.58;109310;1251;73627;-59
2023/02/15 11:07:47;;;;;;;2.90;1.40;;;;;;;3.01;100.00;100381.69;109395;1253;60380;-55
2023/02/15 11:10:39;;;;;;;3.50;1.80;;;;;;;3.08;100.00;100381.09;109397;1251;61273;-56
2023/02/15 11:13:18;;;;;;;4.00;1.90;;;;;;;3.03;100.00;100385.41;109366;1251;74750;-55
2023/02/15 11:16:17;;;;;;;4.10;1.90;;;;;;;2.94;100.00;100391.73;109368;1251;67777;-58
2023/02/15 11:18:57;;;;;;;5.50;2.70;;;;;;;2.79;100.00;100389.52;109324;1251;73325;-55
2023/02/15 11:21:32;;;;;;;4.10;1.90;;;;;;;2.58;100.00;100389.77;109241;1251;60603;-56
2023/02/15 11:24:01;;;;;;;4.50;2.20;;;;;;;2.38;100.00;100399.67;109417;1251;61406;-55
2023/02/15 11:26:32;;;;;;;3.70;1.80;;;;;;;2.28;100.00;100404.65;109479;1251;74836;-55
2023/02/15 11:29:22;;;;;;;4.30;2.30;;;;;;;2.25;100.00;100406.91;109374;1254;68130;-55
2023/02/15 11:31:54;;;;;;;4.40;1.60;;;;;;;2.25;100.00;100403.65;109328;1251;73337;-55
2023/02/15 11:35:09;;;;;;;3.90;1.80;;;;;;;2.25;100.00;100409.48;109327;1251;60956;-55
2023/02/15 11:37:54;;;;;;;3.40;1.90;;;;;;;2.26;100.00;100412.67;109202;1251;60010;-55
2023/02/15 11:40:28;;;;;;;5.50;2.60;;;;;;;2.23;100.00;100415.63;109342;1251;74115;-56
2023/02/15 11:43:00;;;;;;;3.90;2.40;;;;;;;2.24;100.00;100415.71;109416;1251;67049;-55
2023/02/15 11:45:29;;;;;;;4.20;2.10;;;;;;;2.29;100.00;100418.77;109336;1251;73637;-57
2023/02/15 11:47:58;;;;;;;4.20;1.90;;;;;;;2.34;100.00;100418.34;109359;1251;59960;-55
2023/02/15 11:50:31;;;;;;;3.70;1.50;;;;;;;2.37;100.00;100418.27;109254;1251;61317;-55
2023/02/15 11:53:01;;;;;;;4.00;2.20;;;;;;;2.37;100.00;100426.50;109464;1255;74725;-56
2023/02/15 11:55:30;;;;;;;4.00;1.90;;;;;;;2.40;100.00;100425.42;109331;1251;66968;-56
2023/02/15 11:58:08;;;;;;;4.40;2.10;;;;;;;2.40;100.00;100428.17;109354;1251;73615;-58
2023/02/15 12:00:41;;;;;;;5.70;2.90;;;;;;;2.37;100.00;100429.09;109371;1251;60955;-55
2023/02/15 12:03:12;;;;;;;4.70;2.80;;;;;;;2.35;100.00;100431.48;109406;1251;61081;-55
2023/02/15 12:05:44;;;;;;;5.40;2.80;;;;;;;2.32;100.00;100438.95;109336;1251;74709;-55
2023/02/15 12:08:19;;;;;;;6.00;3.50;;;;;;;2.32;100.00;100438.74;109351;1256;68022;-55
2023/02/15 12:11:12;;;;;;;5.10;2.70;;;;;;;2.35;100.00;100439.73;109374;1251;73703;-55